sensor_id;sensor_type;location;lat;lon;timestamp;pressure;altitude;pressure_sealevel;temperature;humidity
77079;BME280;66004;55.096;38.760;2024-02-14T00:01:00;101079.13;;;-8.71;60.93
77079;BME280;66004;55.096;38.760;2024-02-14T00:03:25;101089.00;;;-8.70;60.49
77079;BME280;66004;55.096;38.760;2024-02-14T00:05:52;101096.25;;;-8.77;60.67
77079;BME280;66004;55.096;38.760;2024-02-14T00:08:18;101095.19;;;-8.76;60.88
77079;BME280;66004;55.096;38.760;2024-02-14T00:10:44;101088.41;;;-8.80;60.61
77079;BME280;66004;55.096;38.760;2024-02-14T00:13:10;101092.47;;;-8.76;60.58
77079;BME280;66004;55.096;38.760;2024-02-14T00:15:36;101109.88;;;-8.77;60.81
77079;BME280;66004;55.096;38.760;2024-02-14T00:18:02;101100.19;;;-8.79;60.69
77079;BME280;66004;55.096;38.760;2024-02-14T00:20:28;101098.75;;;-8.90;61.08
77079;BME280;66004;55.096;38.760;2024-02-14T00:22:53;101101.78;;;-8.85;60.54
77079;BME280;66004;55.096;38.760;2024-02-14T00:25:19;101106.28;;;-8.92;60.88
77079;BME280;66004;55.096;38.760;2024-02-14T00:27:45;101101.19;;;-8.95;60.66
77079;BME280;66004;55.096;38.760;2024-02-14T00:30:11;101096.78;;;-8.96;60.64
77079;BME280;66004;55.096;38.760;2024-02-14T00:32:36;101109.56;;;-8.97;60.96
77079;BME280;66004;55.096;38.760;2024-02-14T00:35:02;101102.97;;;-9.03;60.91
77079;BME280;66004;55.096;38.760;2024-02-14T00:37:28;101104.00;;;-9.04;60.57
77079;BME280;66004;55.096;38.760;2024-02-14T00:39:54;101101.75;;;-9.15;60.44
77079;BME280;66004;55.096;38.760;2024-02-14T00:42:40;101117.00;;;-9.06;60.84
77079;BME280;66004;55.096;38.760;2024-02-14T00:45:06;101119.41;;;-9.11;60.77
77079;BME280;66004;55.096;38.760;2024-02-14T00:47:34;101100.41;;;-9.19;60.71
77079;BME280;66004;55.096;38.760;2024-02-14T00:50:00;101118.19;;;-9.08;60.54
77079;BME280;66004;55.096;38.760;2024-02-14T00:52:25;101116.03;;;-9.13;60.29
77079;BME280;66004;55.096;38.760;2024-02-14T00:54:51;101086.50;;;-9.24;60.49
77079;BME280;66004;55.096;38.760;2024-02-14T00:57:17;101094.00;;;-9.26;60.45
77079;BME280;66004;55.096;38.760;2024-02-14T00:59:43;101119.78;;;-9.14;60.48
77079;BME280;66004;55.096;38.760;2024-02-14T01:02:09;101129.34;;;-9.18;60.22
77079;BME280;66004;55.096;38.760;2024-02-14T01:04:34;101116.56;;;-9.17;60.47
77079;BME280;66004;55.096;38.760;2024-02-14T01:07:03;101118.53;;;-9.26;60.49
77079;BME280;66004;55.096;38.760;2024-02-14T01:09:29;101109.75;;;-9.36;60.29
77079;BME280;66004;55.096;38.760;2024-02-14T01:11:54;101123.31;;;-9.28;60.86
77079;BME280;66004;55.096;38.760;2024-02-14T01:14:21;101119.06;;;-9.31;60.40
77079;BME280;66004;55.096;38.760;2024-02-14T01:16:47;101105.69;;;-9.41;60.17
77079;BME280;66004;55.096;38.760;2024-02-14T01:19:13;101128.78;;;-9.28;60.39
77079;BME280;66004;55.096;38.760;2024-02-14T01:21:39;101123.69;;;-9.31;60.37
77079;BME280;66004;55.096;38.760;2024-02-14T01:24:04;101129.13;;;-9.31;60.76
77079;BME280;66004;55.096;38.760;2024-02-14T01:26:34;101114.53;;;-9.38;60.27
77079;BME280;66004;55.096;38.760;2024-02-14T01:28:59;101103.31;;;-9.44;60.60
77079;BME280;66004;55.096;38.760;2024-02-14T01:31:26;101120.66;;;-9.36;60.24
77079;BME280;66004;55.096;38.760;2024-02-14T01:33:53;101129.88;;;-9.37;60.62
77079;BME280;66004;55.096;38.760;2024-02-14T01:36:18;101121.63;;;-9.52;60.51
77079;BME280;66004;55.096;38.760;2024-02-14T01:38:44;101136.03;;;-9.44;60.24
77079;BME280;66004;55.096;38.760;2024-02-14T01:41:10;101146.91;;;-9.44;60.13
77079;BME280;66004;55.096;38.760;2024-02-14T01:43:36;101142.34;;;-9.43;60.56
77079;BME280;66004;55.096;38.760;2024-02-14T01:46:06;101145.59;;;-9.48;60.32
77079;BME280;66004;55.096;38.760;2024-02-14T01:48:35;101138.47;;;-9.49;60.50
77079;BME280;66004;55.096;38.760;2024-02-14T01:51:03;101158.88;;;-9.45;60.06
77079;BME280;66004;55.096;38.760;2024-02-14T01:53:30;101139.56;;;-9.58;60.82
77079;BME280;66004;55.096;38.760;2024-02-14T01:55:57;101154.19;;;-9.59;60.19
77079;BME280;66004;55.096;38.760;2024-02-14T01:58:24;101148.75;;;-9.59;60.42
77079;BME280;66004;55.096;38.760;2024-02-14T02:00:51;101143.19;;;-9.66;60.46
77079;BME280;66004;55.096;38.760;2024-02-14T02:03:22;101171.50;;;-9.52;60.50
77079;BME280;66004;55.096;38.760;2024-02-14T02:05:49;101151.78;;;-9.54;60.44
77079;BME280;66004;55.096;38.760;2024-02-14T02:08:14;101164.00;;;-9.50;60.37
77079;BME280;66004;55.096;38.760;2024-02-14T02:10:40;101160.63;;;-9.52;60.22
77079;BME280;66004;55.096;38.760;2024-02-14T02:13:05;101167.47;;;-9.56;60.21
77079;BME280;66004;55.096;38.760;2024-02-14T02:15:31;101165.09;;;-9.59;60.63
77079;BME280;66004;55.096;38.760;2024-02-14T02:17:57;101162.75;;;-9.62;60.20
77079;BME280;66004;55.096;38.760;2024-02-14T02:20:24;101158.19;;;-9.70;60.25
77079;BME280;66004;55.096;38.760;2024-02-14T02:22:53;101175.69;;;-9.64;60.55
77079;BME280;66004;55.096;38.760;2024-02-14T02:25:18;101170.94;;;-9.70;60.48
77079;BME280;66004;55.096;38.760;2024-02-14T02:27:49;101161.09;;;-9.71;60.20
77079;BME280;66004;55.096;38.760;2024-02-14T02:30:15;101178.41;;;-9.64;60.40
77079;BME280;66004;55.096;38.760;2024-02-14T02:32:42;101183.88;;;-9.64;60.28
77079;BME280;66004;55.096;38.760;2024-02-14T02:35:08;101160.09;;;-9.79;60.39
77079;BME280;66004;55.096;38.760;2024-02-14T02:37:35;101168.94;;;-9.76;60.52
77079;BME280;66004;55.096;38.760;2024-02-14T02:40:01;101186.75;;;-9.66;60.22
77079;BME280;66004;55.096;38.760;2024-02-14T02:42:26;101176.38;;;-9.70;60.63
77079;BME280;66004;55.096;38.760;2024-02-14T02:44:52;101184.94;;;-9.73;60.30
77079;BME280;66004;55.096;38.760;2024-02-14T02:47:18;101179.69;;;-9.83;60.11
77079;BME280;66004;55.096;38.760;2024-02-14T02:49:44;101190.41;;;-9.82;60.47
77079;BME280;66004;55.096;38.760;2024-02-14T02:52:10;101196.19;;;-9.76;60.10
77079;BME280;66004;55.096;38.760;2024-02-14T02:54:36;101200.94;;;-9.79;60.24
77079;BME280;66004;55.096;38.760;2024-02-14T02:57:02;101211.19;;;-9.81;60.36
77079;BME280;66004;55.096;38.760;2024-02-14T02:59:30;101204.41;;;-9.85;60.18
77079;BME280;66004;55.096;38.760;2024-02-14T03:01:56;101201.47;;;-9.83;60.18
77079;BME280;66004;55.096;38.760;2024-02-14T03:04:23;101206.91;;;-9.83;60.23
77079;BME280;66004;55.096;38.760;2024-02-14T03:06:49;101205.56;;;-9.87;60.33
77079;BME280;66004;55.096;38.760;2024-02-14T03:09:15;101211.91;;;-9.87;59.74
77079;BME280;66004;55.096;38.760;2024-02-14T03:11:40;101193.56;;;-10.01;60.12
77079;BME280;66004;55.096;38.760;2024-02-14T03:14:06;101203.03;;;-9.89;60.22
77079;BME280;66004;55.096;38.760;2024-02-14T03:16:33;101212.25;;;-9.90;60.31
77079;BME280;66004;55.096;38.760;2024-02-14T03:18:59;101221.41;;;-9.91;60.13
77079;BME280;66004;55.096;38.760;2024-02-14T03:21:25;101215.13;;;-9.91;59.83
77079;BME280;66004;55.096;38.760;2024-02-14T03:23:52;101216.69;;;-9.97;59.79
77079;BME280;66004;55.096;38.760;2024-02-14T03:26:19;101216.19;;;-10.01;59.72
77079;BME280;66004;55.096;38.760;2024-02-14T03:28:45;101210.97;;;-10.10;59.75
77079;BME280;66004;55.096;38.760;2024-02-14T03:31:10;101221.13;;;-10.04;60.10
77079;BME280;66004;55.096;38.760;2024-02-14T03:33:39;101219.13;;;-10.10;60.40
77079;BME280;66004;55.096;38.760;2024-02-14T03:36:05;101211.28;;;-10.13;60.08
77079;BME280;66004;55.096;38.760;2024-02-14T03:38:30;101226.63;;;-10.12;59.69
77079;BME280;66004;55.096;38.760;2024-02-14T03:40:56;101225.94;;;-10.14;59.75
77079;BME280;66004;55.096;38.760;2024-02-14T03:43:22;101225.44;;;-10.18;60.11
77079;BME280;66004;55.096;38.760;2024-02-14T03:45:49;101232.09;;;-10.21;59.54
77079;BME280;66004;55.096;38.760;2024-02-14T03:48:14;101225.66;;;-10.28;60.07
77079;BME280;66004;55.096;38.760;2024-02-14T03:50:40;101237.59;;;-10.37;59.64
77079;BME280;66004;55.096;38.760;2024-02-14T03:53:06;101245.22;;;-10.32;59.71
77079;BME280;66004;55.096;38.760;2024-02-14T03:55:31;101248.31;;;-10.35;59.91
77079;BME280;66004;55.096;38.760;2024-02-14T03:57:57;101246.44;;;-10.35;59.70
77079;BME280;66004;55.096;38.760;2024-02-14T04:00:22;101250.53;;;-10.39;60.30
77079;BME280;66004;55.096;38.760;2024-02-14T04:02:49;101233.03;;;-10.53;59.98
77079;BME280;66004;55.096;38.760;2024-02-14T04:05:16;101251.06;;;-10.52;60.01
77079;BME280;66004;55.096;38.760;2024-02-14T04:07:41;101264.63;;;-10.44;60.14
77079;BME280;66004;55.096;38.760;2024-02-14T04:10:09;101267.53;;;-10.45;59.81
77079;BME280;66004;55.096;38.760;2024-02-14T04:12:35;101262.09;;;-10.45;59.70
77079;BME280;66004;55.096;38.760;2024-02-14T04:15:00;101260.75;;;-10.49;60.02
77079;BME280;66004;55.096;38.760;2024-02-14T04:17:26;101269.78;;;-10.49;59.68
77079;BME280;66004;55.096;38.760;2024-02-14T04:19:52;101260.75;;;-10.58;60.00
77079;BME280;66004;55.096;38.760;2024-02-14T04:22:17;101269.94;;;-10.50;60.06
77079;BME280;66004;55.096;38.760;2024-02-14T04:24:43;101276.06;;;-10.56;59.63
77079;BME280;66004;55.096;38.760;2024-02-14T04:27:08;101267.72;;;-10.55;59.94
77079;BME280;66004;55.096;38.760;2024-02-14T04:29:34;101268.59;;;-10.54;59.90
77079;BME280;66004;55.096;38.760;2024-02-14T04:32:01;101278.78;;;-10.56;59.78
77079;BME280;66004;55.096;38.760;2024-02-14T04:34:26;101269.94;;;-10.67;59.74
77079;BME280;66004;55.096;38.760;2024-02-14T04:36:52;101278.28;;;-10.60;59.86
77079;BME280;66004;55.096;38.760;2024-02-14T04:39:18;101277.09;;;-10.66;60.24
77079;BME280;66004;55.096;38.760;2024-02-14T04:41:44;101289.84;;;-10.58;59.89
77079;BME280;66004;55.096;38.760;2024-02-14T04:44:10;101289.84;;;-10.58;60.02
77079;BME280;66004;55.096;38.760;2024-02-14T04:46:35;101294.41;;;-10.59;60.11
77079;BME280;66004;55.096;38.760;2024-02-14T04:49:03;101298.16;;;-10.60;59.81
77079;BME280;66004;55.096;38.760;2024-02-14T04:51:29;101294.41;;;-10.59;59.54
77079;BME280;66004;55.096;38.760;2024-02-14T04:53:55;101305.28;;;-10.59;59.44
77079;BME280;66004;55.096;38.760;2024-02-14T04:56:24;101297.31;;;-10.60;59.44
77079;BME280;66004;55.096;38.760;2024-02-14T04:58:51;101304.78;;;-10.62;59.39
77079;BME280;66004;55.096;38.760;2024-02-14T05:01:17;101301.88;;;-10.61;59.41
77079;BME280;66004;55.096;38.760;2024-02-14T05:03:43;101303.59;;;-10.60;59.50
77079;BME280;66004;55.096;38.760;2024-02-14T05:06:09;101297.81;;;-10.73;59.30
77079;BME280;66004;55.096;38.760;2024-02-14T05:08:34;101308.00;;;-10.67;59.35
77079;BME280;66004;55.096;38.760;2024-02-14T05:11:00;101307.69;;;-10.64;59.70
77079;BME280;66004;55.096;38.760;2024-02-14T05:13:25;101281.16;;;-10.78;59.58
77079;BME280;66004;55.096;38.760;2024-02-14T05:15:51;101315.16;;;-10.66;59.70
77079;BME280;66004;55.096;38.760;2024-02-14T05:18:16;101321.28;;;-10.55;59.51
77079;BME280;66004;55.096;38.760;2024-02-14T05:20:42;101320.75;;;-10.59;59.42
77079;BME280;66004;55.096;38.760;2024-02-14T05:23:07;101302.25;;;-10.64;59.31
77079;BME280;66004;55.096;38.760;2024-02-14T05:25:34;101311.41;;;-10.65;59.14
77079;BME280;66004;55.096;38.760;2024-02-14T05:28:00;101323.31;;;-10.58;59.19
77079;BME280;66004;55.096;38.760;2024-02-14T05:30:26;101294.44;;;-10.75;59.12
77079;BME280;66004;55.096;38.760;2024-02-14T05:32:52;101325.69;;;-10.63;58.97
77079;BME280;66004;55.096;38.760;2024-02-14T05:35:18;101333.69;;;-10.61;59.24
77079;BME280;66004;55.096;38.760;2024-02-14T05:37:43;101336.22;;;-10.60;58.83
77079;BME280;66004;55.096;38.760;2024-02-14T05:40:09;101339.97;;;-10.61;58.59
77079;BME280;66004;55.096;38.760;2024-02-14T05:42:34;101334.88;;;-10.64;58.96
77079;BME280;66004;55.096;38.760;2024-02-14T05:45:00;101338.59;;;-10.65;58.56
77079;BME280;66004;55.096;38.760;2024-02-14T05:47:27;101347.13;;;-10.60;58.68
77079;BME280;66004;55.096;38.760;2024-02-14T05:49:52;101348.66;;;-10.49;58.94
77079;BME280;66004;55.096;38.760;2024-02-14T05:52:18;101352.19;;;-10.40;58.77
77079;BME280;66004;55.096;38.760;2024-02-14T05:54:43;101350.16;;;-10.38;58.33
77079;BME280;66004;55.096;38.760;2024-02-14T05:57:09;101357.66;;;-10.32;58.56
77079;BME280;66004;55.096;38.760;2024-02-14T05:59:34;101363.91;;;-10.40;58.32
77079;BME280;66004;55.096;38.760;2024-02-14T06:02:00;101353.22;;;-10.49;58.18
77079;BME280;66004;55.096;38.760;2024-02-14T06:04:28;101366.31;;;-10.45;58.58
77079;BME280;66004;55.096;38.760;2024-02-14T06:06:53;101371.91;;;-10.38;58.34
77079;BME280;66004;55.096;38.760;2024-02-14T06:09:19;101362.38;;;-10.34;58.35
77079;BME280;66004;55.096;38.760;2024-02-14T06:11:44;101366.16;;;-10.35;58.10
77079;BME280;66004;55.096;38.760;2024-02-14T06:14:10;101358.84;;;-10.34;57.91
77079;BME280;66004;55.096;38.760;2024-02-14T06:16:35;101359.66;;;-10.26;57.80
77079;BME280;66004;55.096;38.760;2024-02-14T06:19:01;101374.94;;;-10.08;57.54
77079;BME280;66004;55.096;38.760;2024-02-14T06:21:29;101356.22;;;-10.11;57.61
77079;BME280;66004;55.096;38.760;2024-02-14T06:23:55;101371.19;;;-9.99;57.15
77079;BME280;66004;55.096;38.760;2024-02-14T06:26:21;101377.97;;;-9.95;56.92
77079;BME280;66004;55.096;38.760;2024-02-14T06:28:46;101374.91;;;-10.00;57.58
77079;BME280;66004;55.096;38.760;2024-02-14T06:31:12;101368.50;;;-10.07;57.06
77079;BME280;66004;55.096;38.760;2024-02-14T06:33:37;101371.38;;;-10.09;57.08
77079;BME280;66004;55.096;38.760;2024-02-14T06:36:03;101380.22;;;-10.07;57.51
77079;BME280;66004;55.096;38.760;2024-02-14T06:38:31;101381.22;;;-10.08;56.98
77079;BME280;66004;55.096;38.760;2024-02-14T06:40:56;101375.63;;;-10.06;57.18
77079;BME280;66004;55.096;38.760;2024-02-14T06:43:22;101378.16;;;-10.05;56.81
77079;BME280;66004;55.096;38.760;2024-02-14T06:45:47;101379.38;;;-10.07;56.70
77079;BME280;66004;55.096;38.760;2024-02-14T06:48:13;101385.81;;;-10.00;57.14
77079;BME280;66004;55.096;38.760;2024-02-14T06:50:38;101386.50;;;-9.98;57.31
77079;BME280;66004;55.096;38.760;2024-02-14T06:53:04;101380.38;;;-10.00;57.15
77079;BME280;66004;55.096;38.760;2024-02-14T06:55:30;101376.97;;;-10.02;56.65
77079;BME280;66004;55.096;38.760;2024-02-14T06:58:00;101386.69;;;-10.00;57.36
77079;BME280;66004;55.096;38.760;2024-02-14T07:00:26;101387.84;;;-9.86;57.22
77079;BME280;66004;55.096;38.760;2024-02-14T07:02:51;101393.28;;;-9.86;56.54
77079;BME280;66004;55.096;38.760;2024-02-14T07:05:17;101388.88;;;-9.95;56.98
77079;BME280;66004;55.096;38.760;2024-02-14T07:07:42;101391.44;;;-9.93;56.58
77079;BME280;66004;55.096;38.760;2024-02-14T07:10:08;101391.25;;;-9.84;56.72
77079;BME280;66004;55.096;38.760;2024-02-14T07:12:34;101394.63;;;-9.73;56.91
77079;BME280;66004;55.096;38.760;2024-02-14T07:15:02;101387.13;;;-9.71;56.71
77079;BME280;66004;55.096;38.760;2024-02-14T07:17:29;101382.69;;;-9.72;56.57
77079;BME280;66004;55.096;38.760;2024-02-14T07:19:55;101369.81;;;-9.87;56.63
77079;BME280;66004;55.096;38.760;2024-02-14T07:22:20;101398.72;;;-9.69;56.54
77079;BME280;66004;55.096;38.760;2024-02-14T07:24:46;101393.97;;;-9.75;56.54
77079;BME280;66004;55.096;38.760;2024-02-14T07:27:12;101392.88;;;-9.66;56.40
77079;BME280;66004;55.096;38.760;2024-02-14T07:29:38;101394.59;;;-9.65;56.17
77079;BME280;66004;55.096;38.760;2024-02-14T07:32:03;101386.09;;;-9.70;56.56
77079;BME280;66004;55.096;38.760;2024-02-14T07:34:29;101378.59;;;-9.68;56.12
77079;BME280;66004;55.096;38.760;2024-02-14T07:36:55;101395.25;;;-9.55;56.06
77079;BME280;66004;55.096;38.760;2024-02-14T07:39:20;101382.00;;;-9.58;56.49
77079;BME280;66004;55.096;38.760;2024-02-14T07:41:46;101392.88;;;-9.58;56.68
77079;BME280;66004;55.096;38.760;2024-02-14T07:44:12;101398.31;;;-9.50;56.51
77079;BME280;66004;55.096;38.760;2024-02-14T07:46:38;101388.94;;;-9.55;56.43
77079;BME280;66004;55.096;38.760;2024-02-14T07:49:04;101393.06;;;-9.60;56.41
77079;BME280;66004;55.096;38.760;2024-02-14T07:51:30;101392.50;;;-9.47;56.57
77079;BME280;66004;55.096;38.760;2024-02-14T07:54:02;101382.25;;;-9.36;56.60
77079;BME280;66004;55.096;38.760;2024-02-14T07:56:28;101389.69;;;-9.22;56.70
77079;BME280;66004;55.096;38.760;2024-02-14T07:58:53;101374.41;;;-9.31;56.33
77079;BME280;66004;55.096;38.760;2024-02-14T08:01:19;101381.16;;;-9.19;56.28
77079;BME280;66004;55.096;38.760;2024-02-14T08:03:45;101395.41;;;-9.09;56.25
77079;BME280;66004;55.096;38.760;2024-02-14T08:06:11;101398.75;;;-8.98;56.29
77079;BME280;66004;55.096;38.760;2024-02-14T08:08:37;101395.69;;;-8.95;55.96
77079;BME280;66004;55.096;38.760;2024-02-14T08:11:03;101398.75;;;-8.90;55.83
77079;BME280;66004;55.096;38.760;2024-02-14T08:13:29;101404.47;;;-8.77;55.93
77079;BME280;66004;55.096;38.760;2024-02-14T08:15:54;101413.63;;;-8.70;55.54
77079;BME280;66004;55.096;38.760;2024-02-14T08:18:20;101409.44;;;-8.57;55.86
77079;BME280;66004;55.096;38.760;2024-02-14T08:20:45;101396.72;;;-8.42;55.76
77079;BME280;66004;55.096;38.760;2024-02-14T08:23:11;101401.78;;;-8.39;55.68
77079;BME280;66004;55.096;38.760;2024-02-14T08:25:36;101401.13;;;-8.41;55.19
77079;BME280;66004;55.096;38.760;2024-02-14T08:28:02;101411.63;;;-8.30;55.61
77079;BME280;66004;55.096;38.760;2024-02-14T08:30:28;101408.72;;;-8.28;55.66
77079;BME280;66004;55.096;38.760;2024-02-14T08:32:53;101410.53;;;-8.20;55.72
77079;BME280;66004;55.096;38.760;2024-02-14T08:35:19;101406.75;;;-8.19;54.95
77079;BME280;66004;55.096;38.760;2024-02-14T08:37:45;101385.63;;;-8.26;55.53
77079;BME280;66004;55.096;38.760;2024-02-14T08:40:10;101417.22;;;-8.08;55.22
77079;BME280;66004;55.096;38.760;2024-02-14T08:42:37;101409.66;;;-7.98;55.21
77079;BME280;66004;55.096;38.760;2024-02-14T08:45:04;101426.25;;;-7.85;54.61
77079;BME280;66004;55.096;38.760;2024-02-14T08:47:30;101424.19;;;-7.83;54.49
77079;BME280;66004;55.096;38.760;2024-02-14T08:49:55;101412.50;;;-7.76;55.12
77079;BME280;66004;55.096;38.760;2024-02-14T08:52:21;101411.03;;;-7.64;54.69
77079;BME280;66004;55.096;38.760;2024-02-14T08:54:46;101426.31;;;-7.55;54.49
77079;BME280;66004;55.096;38.760;2024-02-14T08:57:12;101407.06;;;-7.61;54.61
77079;BME280;66004;55.096;38.760;2024-02-14T08:59:38;101421.09;;;-7.50;54.39
77079;BME280;66004;55.096;38.760;2024-02-14T09:02:03;101431.38;;;-7.52;54.32
77079;BME280;66004;55.096;38.760;2024-02-14T09:04:29;101432.94;;;-7.34;54.47
77079;BME280;66004;55.096;38.760;2024-02-14T09:06:55;101431.03;;;-7.19;54.40
77079;BME280;66004;55.096;38.760;2024-02-14T09:09:21;101428.59;;;-7.14;53.71
77079;BME280;66004;55.096;38.760;2024-02-14T09:11:47;101417.53;;;-7.06;54.23
77079;BME280;66004;55.096;38.760;2024-02-14T09:14:12;101435.72;;;-6.83;54.38
77079;BME280;66004;55.096;38.760;2024-02-14T09:16:38;101414.34;;;-6.73;53.81
77079;BME280;66004;55.096;38.760;2024-02-14T09:19:05;101426.78;;;-6.55;53.78
77079;BME280;66004;55.096;38.760;2024-02-14T09:21:33;101426.97;;;-6.57;53.01
77079;BME280;66004;55.096;38.760;2024-02-14T09:24:01;101419.97;;;-6.59;53.53
77079;BME280;66004;55.096;38.760;2024-02-14T09:26:26;101441.28;;;-6.40;53.41
77079;BME280;66004;55.096;38.760;2024-02-14T09:28:52;101429.91;;;-6.37;53.60
77079;BME280;66004;55.096;38.760;2024-02-14T09:31:20;101450.28;;;-6.24;53.42
77079;BME280;66004;55.096;38.760;2024-02-14T09:33:49;101429.28;;;-6.17;52.83
77079;BME280;66004;55.096;38.760;2024-02-14T09:36:15;101412.72;;;-6.31;53.42
77079;BME280;66004;55.096;38.760;2024-02-14T09:38:41;101440.25;;;-6.17;52.72
77079;BME280;66004;55.096;38.760;2024-02-14T09:43:39;101441.81;;;-6.08;52.12
77079;BME280;66004;55.096;38.760;2024-02-14T09:46:07;101435.28;;;-6.07;52.03
77079;BME280;66004;55.096;38.760;2024-02-14T09:48:33;101442.56;;;-5.93;52.32
77079;BME280;66004;55.096;38.760;2024-02-14T09:51:00;101447.50;;;-5.81;52.28
77079;BME280;66004;55.096;38.760;2024-02-14T09:53:26;101449.53;;;-5.69;52.38
77079;BME280;66004;55.096;38.760;2024-02-14T09:55:54;101441.22;;;-5.54;52.47
77079;BME280;66004;55.096;38.760;2024-02-14T09:58:20;101447.44;;;-5.38;52.40
77079;BME280;66004;55.096;38.760;2024-02-14T10:00:46;101435.81;;;-5.40;51.64
77079;BME280;66004;55.096;38.760;2024-02-14T10:03:12;101441.03;;;-5.45;52.08
77079;BME280;66004;55.096;38.760;2024-02-14T10:05:38;101443.41;;;-5.42;52.18
77079;BME280;66004;55.096;38.760;2024-02-14T10:08:05;101446.06;;;-5.21;52.17
77079;BME280;66004;55.096;38.760;2024-02-14T10:10:32;101448.41;;;-5.18;51.94
77079;BME280;66004;55.096;38.760;2024-02-14T10:13:00;101441.88;;;-5.17;51.55
77079;BME280;66004;55.096;38.760;2024-02-14T10:15:28;101445.31;;;-5.08;51.96
77079;BME280;66004;55.096;38.760;2024-02-14T10:17:58;101422.47;;;-5.15;51.06
77079;BME280;66004;55.096;38.760;2024-02-14T10:20:23;101445.25;;;-5.15;51.26
77079;BME280;66004;55.096;38.760;2024-02-14T10:22:49;101429.22;;;-5.18;51.10
77079;BME280;66004;55.096;38.760;2024-02-14T10:25:14;101442.25;;;-5.20;50.99
77079;BME280;66004;55.096;38.760;2024-02-14T10:27:40;101411.84;;;-5.25;51.18
77079;BME280;66004;55.096;38.760;2024-02-14T10:30:09;101437.63;;;-5.19;50.89
77079;BME280;66004;55.096;38.760;2024-02-14T10:32:39;101439.81;;;-5.08;50.91
77079;BME280;66004;55.096;38.760;2024-02-14T10:35:06;101438.53;;;-5.12;50.52
77079;BME280;66004;55.096;38.760;2024-02-14T10:37:39;101432.59;;;-5.16;50.67
77079;BME280;66004;55.096;38.760;2024-02-14T10:40:05;101430.94;;;-5.10;50.56
77079;BME280;66004;55.096;38.760;2024-02-14T10:42:32;101436.44;;;-5.03;50.50
77079;BME280;66004;55.096;38.760;2024-02-14T10:44:58;101432.66;;;-5.02;49.75
77079;BME280;66004;55.096;38.760;2024-02-14T10:47:28;101439.03;;;-4.95;50.57
77079;BME280;66004;55.096;38.760;2024-02-14T10:49:59;101434.91;;;-4.78;50.49
77079;BME280;66004;55.096;38.760;2024-02-14T10:52:30;101438.28;;;-4.69;50.25
77079;BME280;66004;55.096;38.760;2024-02-14T10:54:56;101433.66;;;-4.68;50.21
77079;BME280;66004;55.096;38.760;2024-02-14T10:57:24;101409.69;;;-4.88;49.98
77079;BME280;66004;55.096;38.760;2024-02-14T10:59:50;101435.78;;;-4.71;50.34
77079;BME280;66004;55.096;38.760;2024-02-14T11:02:17;101422.63;;;-4.82;49.71
77079;BME280;66004;55.096;38.760;2024-02-14T11:04:43;101435.72;;;-4.84;50.17
77079;BME280;66004;55.096;38.760;2024-02-14T11:07:10;101441.28;;;-4.71;50.46
77079;BME280;66004;55.096;38.760;2024-02-14T11:09:38;101446.38;;;-4.61;50.27
77079;BME280;66004;55.096;38.760;2024-02-14T11:12:10;101443.22;;;-4.51;50.39
77079;BME280;66004;55.096;38.760;2024-02-14T11:14:35;101432.50;;;-4.39;50.59
77079;BME280;66004;55.096;38.760;2024-02-14T11:17:02;101447.56;;;-4.15;50.23
77079;BME280;66004;55.096;38.760;2024-02-14T11:19:32;101454.13;;;-4.16;49.61
77079;BME280;66004;55.096;38.760;2024-02-14T11:22:13;101452.81;;;-4.20;49.99
77079;BME280;66004;55.096;38.760;2024-02-14T11:24:39;101444.41;;;-4.12;50.29
77079;BME280;66004;55.096;38.760;2024-02-14T11:27:10;101442.06;;;-4.15;49.54
77079;BME280;66004;55.096;38.760;2024-02-14T11:29:50;101444.38;;;-4.25;49.82
77079;BME280;66004;55.096;38.760;2024-02-14T11:32:17;101437.56;;;-4.30;49.39
77079;BME280;66004;55.096;38.760;2024-02-14T11:34:43;101448.81;;;-4.24;50.08
